Pagrindinis puslapis
METAR-TAF:

METAR-TAF

Oro uostai :

Kerteh, Malaizija

platuma: 04-32-15N, ilguma: 103-25-36E, Aukštis: 5 m

Dabartinis oras

Ataskaita buvo paskelbta 31 minutes, ne 22:00 UTC
Vėjas 2 kt nuo kintamojo kryptimis
Temperatūra 24°C
Drėgmė 100%
Slėgis 1010 hPa

METAR: WMKE 212200Z AUTO VRB02KT //// // ////// 24/24 Q1010

Laikas: 06:31 (22:31 UTC)

Prognozė

Ataskaita buvo paskelbta 5 valandos ir 31 minutes, ne 17:00 UTC
Prognozė galioja nuo 21 metu 18 UTC su 22 metu 18 UTC
Vėjas 3 kt nuo kintamojo kryptimis
Matomumas 10 km arba daugiau
Išsisklaidę debesys ne aukštis 1500 ft
Tapsmas
nuo 22 metu 01 UTC su 22 metu 03 UTC
Vėjas 6 kt iš Šiaurės/Šiaurės Rytų
Laikinai
nuo 22 metu 03 UTC su 22 metu 06 UTC
Matomumas: 7000 m
Mažai debesys ne aukštis 600 ft
lietus
Laikinai
nuo 22 metu 10 UTC su 22 metu 16 UTC
Matomumas: 4000 m
Mažai debesys ne aukštis 400 ft
lietus

TAF: WMKE 211700Z 2118/2218 VRB03KT 9999 SCT015 BECMG 2201/2203 03006KT TEMPO 2203/2206 7000 -RA FEW006 TEMPO 2210/2216 4000 RA FEW004

Orai ataskaitas ir orų prognozės (METAR, TAF).

turimą stotys yra geltonos ir raudonos taškus žemėlapyje.

Perkelti pele per norėdami pamatyti stoties vardą.

Tada spustelėkite, norėdami matyti oro stebėjimo ir prognozės.

Norėdami pakeisti žemėlapį: spustelėkite ant žalios mygtukų su juodo kryžiaus žemyn,; žalią mygtuką su brūkšneliu, jei norite nutolinti; arba žalių rodyklių gretimoms žemėlapius.


METAR-TAF: